Terminal Aerodrome Forecast
Issued by NWS Green Bay, WI

Home | Current Version | Previous Version | Text Only | Print | Product List | Glossary Off
Versions: 1 2 3 4 5 6 7 8 9 10 11 12 13 14 15 16 17 18 19 20 21 22 23 24 25 26 27 28 29 30

000
FTUS43 KGRB 111700
TAFGRB
TAF
KGRB 111737Z 1118/1218 19010G18KT P6SM SCT050 BKN120
     FM120700 20003KT 6SM BR BKN050
     FM121000 22007KT 4SM BR VCSH SCT020 OVC035 PROB30 1216/1218 4SM
      TSRA BR OVC015CB=

USA.gov is the U.S. government's official web portal to all federal, state and local government web resources and services.